Terminal Aerodrome Forecast
Issued by NWS Denver/Boulder, CO

Home | Current Version | Previous Version | Text Only | Print | Product List | Glossary On
Versions: 1 2 3 4 5 6 7 8 9 10 11 12 13 14 15 16 17 18 19 20 21 22 23 24 25 26 27 28 29 30 31 32 33 34 35 36 37 38 39 40 41 42 43 44 45 46 47 48 49 50
524
FTUS45 KBOU 290912 AAA
TAFDEN
TAF AMD
KDEN 290912Z 2909/3012 15008KT P6SM FEW030 SCT070
     FM291100 08006KT P6SM SCT030 SCT070
      TEMPO 2911/2914 BKN030
     FM291700 08008KT P6SM SCT040 SCT080
     FM292100 14011KT P6SM SCT060 BKN080 PROB30 2922/3004 VRB15G25KT
      -TSRA BKN060CB
     FM300500 19011KT P6SM SCT060 BKN100=

USA.gov is the U.S. government's official web portal to all federal, state and local government web resources and services.